createdAt,value
2023-02-28T10:28:41.354Z,3.10
2023-02-28T12:05:02.108Z,5.30
2023-02-28T12:07:47.634Z,7.40
2023-02-28T12:10:30.893Z,7.50
2023-02-28T12:13:05.851Z,7.50
2023-02-28T12:15:38.434Z,7.80
2023-02-28T12:18:37.238Z,7.50
2023-02-28T12:21:40.244Z,8.10
2023-02-28T12:24:40.148Z,8.30
2023-02-28T12:37:33.051Z,9.00
2023-02-28T12:58:15.869Z,9.10
2023-02-28T13:01:16.080Z,10.00
2023-02-28T13:04:18.955Z,9.90
2023-02-28T13:07:09.256Z,9.40
2023-02-28T13:09:36.405Z,9.30
2023-02-28T13:12:14.745Z,8.60
2023-02-28T13:14:42.070Z,9.20
2023-02-28T13:17:14.945Z,9.70
2023-02-28T13:19:56.567Z,10.20
2023-02-28T13:22:45.191Z,10.20
2023-02-28T13:25:24.059Z,10.70
2023-02-28T13:27:57.812Z,10.00
2023-02-28T13:30:56.817Z,10.20
2023-02-28T13:38:41.561Z,10.40
2023-02-28T13:41:30.380Z,11.00
2023-02-28T13:44:06.965Z,11.00
2023-02-28T13:46:37.293Z,10.70
2023-02-28T13:49:39.610Z,11.10
2023-02-28T13:52:17.436Z,10.50
2023-02-28T13:54:56.992Z,10.10
2023-02-28T13:57:23.827Z,10.30
2023-02-28T14:00:28.068Z,10.00
2023-02-28T14:03:27.931Z,10.70
2023-02-28T14:09:13.399Z,10.70
2023-02-28T14:11:42.013Z,10.70
2023-02-28T14:14:30.810Z,10.20
2023-02-28T14:16:58.809Z,11.10
2023-02-28T14:19:29.849Z,11.10
2023-02-28T14:22:02.398Z,10.80
2023-02-28T14:25:11.898Z,10.70
2023-02-28T14:27:49.509Z,11.20
2023-02-28T16:11:46.183Z,11.40
2023-02-28T16:36:33.167Z,6.90
2023-02-28T18:53:09.272Z,4.70
2023-02-28T19:00:33.483Z,4.40
2023-02-28T19:03:00.561Z,4.30
2023-02-28T19:05:30.989Z,4.30
2023-02-28T19:07:57.827Z,4.30
2023-02-28T19:10:25.144Z,4.30
2023-02-28T19:12:51.920Z,4.20
2023-02-28T19:17:46.290Z,4.20
2023-02-28T19:20:13.407Z,4.00
2023-02-28T19:22:40.332Z,4.00
2023-02-28T19:25:08.139Z,4.00
2023-02-28T19:27:35.225Z,4.00
2023-02-28T19:30:02.929Z,4.00
2023-02-28T19:32:29.913Z,3.90
2023-02-28T19:34:56.938Z,3.90
2023-02-28T19:44:49.034Z,3.90
2023-02-28T19:47:15.865Z,3.70
